sensor_id;sensor_type;location;lat;lon;timestamp;P1;durP1;ratioP1;P2;durP2;ratioP2
19036;SDS011;9651;49.138;8.900;2023-04-12T00:01:14;5.43;;;1.97;;
19036;SDS011;9651;49.138;8.900;2023-04-12T00:05:16;3.67;;;1.17;;
19036;SDS011;9651;49.138;8.900;2023-04-12T00:09:17;5.87;;;2.00;;
19036;SDS011;9651;49.138;8.900;2023-04-12T00:13:19;4.23;;;1.83;;
19036;SDS011;9651;49.138;8.900;2023-04-12T00:17:22;4.23;;;1.77;;
19036;SDS011;9651;49.138;8.900;2023-04-12T00:21:24;4.33;;;1.53;;
19036;SDS011;9651;49.138;8.900;2023-04-12T00:25:27;7.57;;;2.07;;
19036;SDS011;9651;49.138;8.900;2023-04-12T00:29:29;6.77;;;2.00;;
19036;SDS011;9651;49.138;8.900;2023-04-12T00:33:33;3.63;;;1.63;;
19036;SDS011;9651;49.138;8.900;2023-04-12T00:37:35;2.27;;;1.80;;
19036;SDS011;9651;49.138;8.900;2023-04-12T00:41:37;3.87;;;1.47;;
19036;SDS011;9651;49.138;8.900;2023-04-12T00:45:39;6.23;;;1.67;;
19036;SDS011;9651;49.138;8.900;2023-04-12T00:49:45;4.07;;;1.37;;
19036;SDS011;9651;49.138;8.900;2023-04-12T00:53:47;5.70;;;1.77;;
19036;SDS011;9651;49.138;8.900;2023-04-12T00:57:49;4.40;;;1.50;;
19036;SDS011;9651;49.138;8.900;2023-04-12T01:01:52;3.67;;;1.40;;
19036;SDS011;9651;49.138;8.900;2023-04-12T01:05:59;3.97;;;1.90;;
19036;SDS011;9651;49.138;8.900;2023-04-12T01:10:12;4.30;;;1.57;;
19036;SDS011;9651;49.138;8.900;2023-04-12T01:14:26;4.13;;;1.33;;
19036;SDS011;9651;49.138;8.900;2023-04-12T01:18:36;4.80;;;1.37;;
19036;SDS011;9651;49.138;8.900;2023-04-12T01:22:48;2.70;;;1.60;;
19036;SDS011;9651;49.138;8.900;2023-04-12T01:27:02;4.57;;;1.57;;
19036;SDS011;9651;49.138;8.900;2023-04-12T01:31:14;5.50;;;1.63;;
19036;SDS011;9651;49.138;8.900;2023-04-12T01:35:16;4.63;;;1.90;;
19036;SDS011;9651;49.138;8.900;2023-04-12T01:39:19;6.60;;;1.60;;
19036;SDS011;9651;49.138;8.900;2023-04-12T01:43:23;7.07;;;1.80;;
19036;SDS011;9651;49.138;8.900;2023-04-12T01:47:26;4.43;;;1.87;;
19036;SDS011;9651;49.138;8.900;2023-04-12T01:51:32;3.70;;;2.20;;
19036;SDS011;9651;49.138;8.900;2023-04-12T01:55:40;6.40;;;1.73;;
19036;SDS011;9651;49.138;8.900;2023-04-12T01:59:45;2.53;;;1.50;;
19036;SDS011;9651;49.138;8.900;2023-04-12T02:03:49;5.07;;;1.67;;
19036;SDS011;9651;49.138;8.900;2023-04-12T02:07:53;5.13;;;1.77;;
19036;SDS011;9651;49.138;8.900;2023-04-12T02:11:56;3.60;;;1.70;;
19036;SDS011;9651;49.138;8.900;2023-04-12T02:15:58;2.30;;;1.03;;
19036;SDS011;9651;49.138;8.900;2023-04-12T02:20:03;3.63;;;1.53;;
19036;SDS011;9651;49.138;8.900;2023-04-12T02:24:09;2.87;;;1.33;;
19036;SDS011;9651;49.138;8.900;2023-04-12T02:28:12;4.03;;;2.00;;
19036;SDS011;9651;49.138;8.900;2023-04-12T02:32:15;3.07;;;1.43;;
19036;SDS011;9651;49.138;8.900;2023-04-12T02:36:19;2.70;;;1.60;;
19036;SDS011;9651;49.138;8.900;2023-04-12T02:40:21;6.60;;;2.00;;
19036;SDS011;9651;49.138;8.900;2023-04-12T02:44:24;3.67;;;1.83;;
19036;SDS011;9651;49.138;8.900;2023-04-12T02:48:43;3.93;;;1.50;;
19036;SDS011;9651;49.138;8.900;2023-04-12T02:52:47;6.30;;;1.50;;
19036;SDS011;9651;49.138;8.900;2023-04-12T02:56:50;7.63;;;1.73;;
19036;SDS011;9651;49.138;8.900;2023-04-12T03:01:14;2.43;;;1.53;;
19036;SDS011;9651;49.138;8.900;2023-04-12T03:05:36;4.03;;;1.57;;
19036;SDS011;9651;49.138;8.900;2023-04-12T03:09:40;2.43;;;1.80;;
19036;SDS011;9651;49.138;8.900;2023-04-12T03:13:45;4.13;;;1.80;;
19036;SDS011;9651;49.138;8.900;2023-04-12T03:17:49;2.93;;;1.47;;
19036;SDS011;9651;49.138;8.900;2023-04-12T03:21:54;4.10;;;1.80;;
19036;SDS011;9651;49.138;8.900;2023-04-12T03:25:59;2.73;;;1.60;;
19036;SDS011;9651;49.138;8.900;2023-04-12T03:30:07;5.07;;;1.77;;
19036;SDS011;9651;49.138;8.900;2023-04-12T03:34:11;2.73;;;1.50;;
19036;SDS011;9651;49.138;8.900;2023-04-12T03:38:18;1.87;;;1.47;;
19036;SDS011;9651;49.138;8.900;2023-04-12T03:42:22;2.80;;;1.40;;
19036;SDS011;9651;49.138;8.900;2023-04-12T03:46:24;6.23;;;2.20;;
19036;SDS011;9651;49.138;8.900;2023-04-12T03:50:30;6.33;;;2.27;;
19036;SDS011;9651;49.138;8.900;2023-04-12T03:54:42;4.67;;;2.17;;
19036;SDS011;9651;49.138;8.900;2023-04-12T03:58:48;4.87;;;1.50;;
19036;SDS011;9651;49.138;8.900;2023-04-12T04:02:53;3.37;;;1.70;;
19036;SDS011;9651;49.138;8.900;2023-04-12T04:06:58;3.80;;;1.77;;
19036;SDS011;9651;49.138;8.900;2023-04-12T04:11:02;5.30;;;2.37;;
19036;SDS011;9651;49.138;8.900;2023-04-12T04:15:14;4.90;;;2.40;;
19036;SDS011;9651;49.138;8.900;2023-04-12T04:19:16;5.07;;;2.60;;
19036;SDS011;9651;49.138;8.900;2023-04-12T04:23:20;3.80;;;2.40;;
19036;SDS011;9651;49.138;8.900;2023-04-12T04:27:22;4.17;;;2.20;;
19036;SDS011;9651;49.138;8.900;2023-04-12T04:31:28;6.57;;;2.47;;
19036;SDS011;9651;49.138;8.900;2023-04-12T04:35:34;5.73;;;2.50;;
19036;SDS011;9651;49.138;8.900;2023-04-12T04:40:01;4.77;;;2.57;;
19036;SDS011;9651;49.138;8.900;2023-04-12T04:44:09;3.70;;;2.23;;
19036;SDS011;9651;49.138;8.900;2023-04-12T04:48:21;4.67;;;2.60;;
19036;SDS011;9651;49.138;8.900;2023-04-12T04:52:23;4.23;;;2.37;;
19036;SDS011;9651;49.138;8.900;2023-04-12T04:56:28;5.80;;;3.43;;
19036;SDS011;9651;49.138;8.900;2023-04-12T05:00:30;4.33;;;2.67;;
19036;SDS011;9651;49.138;8.900;2023-04-12T05:04:36;8.47;;;2.80;;
19036;SDS011;9651;49.138;8.900;2023-04-12T05:08:39;2.57;;;2.20;;
19036;SDS011;9651;49.138;8.900;2023-04-12T05:12:42;4.50;;;2.27;;
19036;SDS011;9651;49.138;8.900;2023-04-12T05:16:46;4.33;;;2.07;;
19036;SDS011;9651;49.138;8.900;2023-04-12T05:20:49;3.30;;;2.50;;
19036;SDS011;9651;49.138;8.900;2023-04-12T05:24:51;7.20;;;2.43;;
19036;SDS011;9651;49.138;8.900;2023-04-12T05:28:55;5.33;;;2.70;;
19036;SDS011;9651;49.138;8.900;2023-04-12T05:32:56;4.20;;;2.37;;
19036;SDS011;9651;49.138;8.900;2023-04-12T05:37:00;3.03;;;2.50;;
19036;SDS011;9651;49.138;8.900;2023-04-12T05:41:08;4.97;;;2.63;;
19036;SDS011;9651;49.138;8.900;2023-04-12T05:45:10;4.27;;;2.33;;
19036;SDS011;9651;49.138;8.900;2023-04-12T05:49:12;4.80;;;2.40;;
19036;SDS011;9651;49.138;8.900;2023-04-12T05:53:16;2.77;;;2.30;;
19036;SDS011;9651;49.138;8.900;2023-04-12T05:57:18;4.53;;;2.30;;
19036;SDS011;9651;49.138;8.900;2023-04-12T06:01:22;4.30;;;2.07;;
19036;SDS011;9651;49.138;8.900;2023-04-12T06:05:33;4.10;;;2.20;;
19036;SDS011;9651;49.138;8.900;2023-04-12T06:09:37;2.77;;;1.90;;
19036;SDS011;9651;49.138;8.900;2023-04-12T06:13:40;3.40;;;1.90;;
19036;SDS011;9651;49.138;8.900;2023-04-12T06:17:42;3.00;;;1.47;;
19036;SDS011;9651;49.138;8.900;2023-04-12T06:21:44;4.83;;;1.67;;
19036;SDS011;9651;49.138;8.900;2023-04-12T06:25:47;4.93;;;2.70;;
19036;SDS011;9651;49.138;8.900;2023-04-12T06:29:50;2.00;;;1.50;;
19036;SDS011;9651;49.138;8.900;2023-04-12T06:33:52;3.80;;;1.83;;
19036;SDS011;9651;49.138;8.900;2023-04-12T06:37:54;4.43;;;2.07;;
19036;SDS011;9651;49.138;8.900;2023-04-12T06:41:57;3.83;;;1.60;;
19036;SDS011;9651;49.138;8.900;2023-04-12T06:46:00;4.20;;;1.60;;
19036;SDS011;9651;49.138;8.900;2023-04-12T06:50:03;2.90;;;2.10;;
19036;SDS011;9651;49.138;8.900;2023-04-12T06:54:06;2.37;;;1.80;;
19036;SDS011;9651;49.138;8.900;2023-04-12T06:58:09;2.97;;;1.50;;
19036;SDS011;9651;49.138;8.900;2023-04-12T07:02:11;2.27;;;1.57;;
19036;SDS011;9651;49.138;8.900;2023-04-12T07:06:12;2.53;;;1.63;;
19036;SDS011;9651;49.138;8.900;2023-04-12T07:10:14;2.63;;;1.83;;
19036;SDS011;9651;49.138;8.900;2023-04-12T07:14:18;2.83;;;1.90;;
19036;SDS011;9651;49.138;8.900;2023-04-12T07:18:20;2.27;;;1.70;;
19036;SDS011;9651;49.138;8.900;2023-04-12T07:22:21;3.10;;;1.70;;
19036;SDS011;9651;49.138;8.900;2023-04-12T07:26:23;5.33;;;1.70;;
19036;SDS011;9651;49.138;8.900;2023-04-12T07:30:27;1.50;;;1.40;;
19036;SDS011;9651;49.138;8.900;2023-04-12T07:34:29;3.57;;;1.80;;
19036;SDS011;9651;49.138;8.900;2023-04-12T07:38:31;5.17;;;1.70;;
19036;SDS011;9651;49.138;8.900;2023-04-12T07:42:33;3.70;;;1.80;;
19036;SDS011;9651;49.138;8.900;2023-04-12T07:46:37;2.80;;;1.60;;
19036;SDS011;9651;49.138;8.900;2023-04-12T07:50:39;5.97;;;2.13;;
19036;SDS011;9651;49.138;8.900;2023-04-12T07:54:41;3.97;;;1.97;;
19036;SDS011;9651;49.138;8.900;2023-04-12T07:58:43;4.07;;;1.73;;
19036;SDS011;9651;49.138;8.900;2023-04-12T08:02:46;1.87;;;1.43;;
19036;SDS011;9651;49.138;8.900;2023-04-12T08:06:48;3.77;;;1.40;;
19036;SDS011;9651;49.138;8.900;2023-04-12T08:10:50;3.07;;;1.43;;
19036;SDS011;9651;49.138;8.900;2023-04-12T08:14:52;4.47;;;2.30;;
19036;SDS011;9651;49.138;8.900;2023-04-12T08:18:56;3.63;;;1.80;;
19036;SDS011;9651;49.138;8.900;2023-04-12T08:22:57;3.50;;;1.47;;
19036;SDS011;9651;49.138;8.900;2023-04-12T08:26:59;2.97;;;1.40;;
19036;SDS011;9651;49.138;8.900;2023-04-12T08:31:03;3.00;;;1.67;;
19036;SDS011;9651;49.138;8.900;2023-04-12T08:35:08;4.23;;;1.50;;
19036;SDS011;9651;49.138;8.900;2023-04-12T08:39:10;2.77;;;1.60;;
19036;SDS011;9651;49.138;8.900;2023-04-12T08:43:12;2.57;;;1.50;;
19036;SDS011;9651;49.138;8.900;2023-04-12T08:47:15;2.50;;;1.37;;
19036;SDS011;9651;49.138;8.900;2023-04-12T08:51:19;4.23;;;1.37;;
19036;SDS011;9651;49.138;8.900;2023-04-12T08:55:21;3.43;;;1.30;;
19036;SDS011;9651;49.138;8.900;2023-04-12T08:59:23;3.00;;;1.23;;
19036;SDS011;9651;49.138;8.900;2023-04-12T09:03:27;2.47;;;1.10;;
19036;SDS011;9651;49.138;8.900;2023-04-12T09:07:32;1.73;;;1.27;;
19036;SDS011;9651;49.138;8.900;2023-04-12T09:11:36;2.23;;;1.37;;
19036;SDS011;9651;49.138;8.900;2023-04-12T09:15:47;5.00;;;1.70;;
19036;SDS011;9651;49.138;8.900;2023-04-12T09:19:50;3.97;;;1.90;;
19036;SDS011;9651;49.138;8.900;2023-04-12T09:24:01;8.00;;;1.83;;
19036;SDS011;9651;49.138;8.900;2023-04-12T09:28:16;5.90;;;2.60;;
19036;SDS011;9651;49.138;8.900;2023-04-12T09:32:23;4.53;;;1.80;;
19036;SDS011;9651;49.138;8.900;2023-04-12T09:36:28;5.33;;;2.23;;
19036;SDS011;9651;49.138;8.900;2023-04-12T09:40:39;5.03;;;1.67;;
19036;SDS011;9651;49.138;8.900;2023-04-12T09:44:41;2.33;;;1.60;;
19036;SDS011;9651;49.138;8.900;2023-04-12T09:48:47;5.03;;;1.80;;
19036;SDS011;9651;49.138;8.900;2023-04-12T09:52:51;2.77;;;1.60;;
19036;SDS011;9651;49.138;8.900;2023-04-12T09:56:55;2.85;;;1.35;;
19036;SDS011;9651;49.138;8.900;2023-04-12T10:00:57;3.70;;;1.90;;
19036;SDS011;9651;49.138;8.900;2023-04-12T10:05:02;4.77;;;2.00;;
19036;SDS011;9651;49.138;8.900;2023-04-12T10:09:05;3.53;;;1.80;;
19036;SDS011;9651;49.138;8.900;2023-04-12T10:13:09;3.43;;;1.63;;
19036;SDS011;9651;49.138;8.900;2023-04-12T10:17:12;2.30;;;1.23;;
19036;SDS011;9651;49.138;8.900;2023-04-12T10:21:14;2.47;;;1.45;;
19036;SDS011;9651;49.138;8.900;2023-04-12T10:25:17;2.77;;;1.80;;
19036;SDS011;9651;49.138;8.900;2023-04-12T10:29:23;3.58;;;2.13;;
19036;SDS011;9651;49.138;8.900;2023-04-12T10:33:26;5.03;;;1.77;;
19036;SDS011;9651;49.138;8.900;2023-04-12T10:50:50;1.73;;;1.20;;
19036;SDS011;9651;49.138;8.900;2023-04-12T10:55:26;2.50;;;1.45;;
19036;SDS011;9651;49.138;8.900;2023-04-12T11:04:13;1.10;;;1.00;;
19036;SDS011;9651;49.138;8.900;2023-04-12T11:08:22;1.88;;;1.15;;
19036;SDS011;9651;49.138;8.900;2023-04-12T11:12:27;2.25;;;1.40;;
19036;SDS011;9651;49.138;8.900;2023-04-12T11:16:29;2.38;;;1.00;;
19036;SDS011;9651;49.138;8.900;2023-04-12T11:20:32;0.90;;;0.70;;
19036;SDS011;9651;49.138;8.900;2023-04-12T11:24:36;3.03;;;0.82;;
19036;SDS011;9651;49.138;8.900;2023-04-12T11:28:38;1.25;;;0.77;;
19036;SDS011;9651;49.138;8.900;2023-04-12T11:32:42;0.90;;;0.70;;
19036;SDS011;9651;49.138;8.900;2023-04-12T11:36:47;0.73;;;0.70;;
19036;SDS011;9651;49.138;8.900;2023-04-12T11:40:52;0.68;;;0.50;;
19036;SDS011;9651;49.138;8.900;2023-04-12T11:44:54;0.65;;;0.50;;
19036;SDS011;9651;49.138;8.900;2023-04-12T11:48:56;0.45;;;0.43;;
19036;SDS011;9651;49.138;8.900;2023-04-12T11:53:10;1.15;;;0.47;;
19036;SDS011;9651;49.138;8.900;2023-04-12T11:57:13;2.75;;;0.63;;
19036;SDS011;9651;49.138;8.900;2023-04-12T12:01:18;0.90;;;0.35;;
19036;SDS011;9651;49.138;8.900;2023-04-12T12:05:20;2.28;;;0.55;;
19036;SDS011;9651;49.138;8.900;2023-04-12T12:09:24;1.05;;;0.50;;
19036;SDS011;9651;49.138;8.900;2023-04-12T12:13:26;0.88;;;0.60;;
19036;SDS011;9651;49.138;8.900;2023-04-12T12:17:44;1.15;;;0.68;;
19036;SDS011;9651;49.138;8.900;2023-04-12T12:21:46;2.83;;;0.60;;
19036;SDS011;9651;49.138;8.900;2023-04-12T12:25:49;0.45;;;0.45;;
19036;SDS011;9651;49.138;8.900;2023-04-12T12:29:53;0.65;;;0.50;;
19036;SDS011;9651;49.138;8.900;2023-04-12T12:33:55;0.60;;;0.50;;
19036;SDS011;9651;49.138;8.900;2023-04-12T12:37:58;0.75;;;0.40;;
19036;SDS011;9651;49.138;8.900;2023-04-12T12:42:02;2.28;;;0.60;;
19036;SDS011;9651;49.138;8.900;2023-04-12T12:46:05;2.25;;;0.75;;
19036;SDS011;9651;49.138;8.900;2023-04-12T12:50:07;1.60;;;0.95;;
19036;SDS011;9651;49.138;8.900;2023-04-12T12:54:12;1.85;;;0.73;;
19036;SDS011;9651;49.138;8.900;2023-04-12T12:58:16;1.90;;;0.90;;
19036;SDS011;9651;49.138;8.900;2023-04-12T13:02:18;1.70;;;0.50;;
19036;SDS011;9651;49.138;8.900;2023-04-12T13:06:20;0.68;;;0.35;;
19036;SDS011;9651;49.138;8.900;2023-04-12T13:10:22;0.93;;;0.60;;
19036;SDS011;9651;49.138;8.900;2023-04-12T13:14:27;0.75;;;0.65;;
19036;SDS011;9651;49.138;8.900;2023-04-12T13:18:29;0.70;;;0.50;;
19036;SDS011;9651;49.138;8.900;2023-04-12T13:22:31;0.70;;;0.35;;
19036;SDS011;9651;49.138;8.900;2023-04-12T13:26:33;1.15;;;0.70;;
19036;SDS011;9651;49.138;8.900;2023-04-12T13:30:36;1.98;;;0.52;;
19036;SDS011;9651;49.138;8.900;2023-04-12T13:34:38;1.33;;;0.70;;
19036;SDS011;9651;49.138;8.900;2023-04-12T13:38:40;3.28;;;1.05;;
19036;SDS011;9651;49.138;8.900;2023-04-12T13:42:43;0.60;;;0.43;;
19036;SDS011;9651;49.138;8.900;2023-04-12T13:46:47;0.90;;;0.55;;
19036;SDS011;9651;49.138;8.900;2023-04-12T13:50:48;1.15;;;0.60;;
19036;SDS011;9651;49.138;8.900;2023-04-12T13:54:51;0.60;;;0.57;;
19036;SDS011;9651;49.138;8.900;2023-04-12T13:58:53;1.13;;;0.38;;
19036;SDS011;9651;49.138;8.900;2023-04-12T14:02:56;5.55;;;0.60;;
19036;SDS011;9651;49.138;8.900;2023-04-12T14:06:58;0.30;;;0.30;;
19036;SDS011;9651;49.138;8.900;2023-04-12T14:11:01;0.60;;;0.50;;
19036;SDS011;9651;49.138;8.900;2023-04-12T14:15:06;1.20;;;0.50;;
19036;SDS011;9651;49.138;8.900;2023-04-12T14:19:10;1.10;;;0.30;;
19036;SDS011;9651;49.138;8.900;2023-04-12T14:23:12;1.27;;;0.57;;
19036;SDS011;9651;49.138;8.900;2023-04-12T14:27:14;1.20;;;0.50;;
19036;SDS011;9651;49.138;8.900;2023-04-12T14:31:16;1.23;;;0.40;;
19036;SDS011;9651;49.138;8.900;2023-04-12T14:35:19;2.45;;;0.50;;
19036;SDS011;9651;49.138;8.900;2023-04-12T14:39:21;3.40;;;0.75;;
19036;SDS011;9651;49.138;8.900;2023-04-12T14:43:25;0.77;;;0.55;;
19036;SDS011;9651;49.138;8.900;2023-04-12T14:47:28;1.73;;;0.90;;
19036;SDS011;9651;49.138;8.900;2023-04-12T14:51:31;8.30;;;0.70;;
19036;SDS011;9651;49.138;8.900;2023-04-12T14:55:33;0.75;;;0.40;;
19036;SDS011;9651;49.138;8.900;2023-04-12T14:59:35;0.77;;;0.40;;
19036;SDS011;9651;49.138;8.900;2023-04-12T15:03:37;2.17;;;0.50;;
19036;SDS011;9651;49.138;8.900;2023-04-12T15:07:42;0.97;;;0.50;;
19036;SDS011;9651;49.138;8.900;2023-04-12T15:11:44;0.80;;;0.40;;
19036;SDS011;9651;49.138;8.900;2023-04-12T15:15:51;0.93;;;0.60;;
19036;SDS011;9651;49.138;8.900;2023-04-12T15:19:53;3.60;;;0.70;;
19036;SDS011;9651;49.138;8.900;2023-04-12T15:23:56;1.97;;;0.60;;
19036;SDS011;9651;49.138;8.900;2023-04-12T15:27:58;0.60;;;0.40;;
19036;SDS011;9651;49.138;8.900;2023-04-12T15:32:00;0.80;;;0.43;;
19036;SDS011;9651;49.138;8.900;2023-04-12T15:36:02;1.63;;;0.80;;
19036;SDS011;9651;49.138;8.900;2023-04-12T15:40:07;1.03;;;0.50;;
19036;SDS011;9651;49.138;8.900;2023-04-12T15:44:12;0.40;;;0.40;;
19036;SDS011;9651;49.138;8.900;2023-04-12T15:48:15;2.63;;;0.63;;
19036;SDS011;9651;49.138;8.900;2023-04-12T15:52:17;0.63;;;0.40;;
19036;SDS011;9651;49.138;8.900;2023-04-12T15:56:20;0.67;;;0.43;;
19036;SDS011;9651;49.138;8.900;2023-04-12T16:00:25;1.42;;;0.40;;
19036;SDS011;9651;49.138;8.900;2023-04-12T16:04:27;0.93;;;0.50;;
19036;SDS011;9651;49.138;8.900;2023-04-12T16:08:30;3.47;;;0.70;;
19036;SDS011;9651;49.138;8.900;2023-04-12T16:12:34;2.05;;;0.57;;
19036;SDS011;9651;49.138;8.900;2023-04-12T16:16:35;0.98;;;0.55;;
19036;SDS011;9651;49.138;8.900;2023-04-12T16:20:39;2.72;;;1.15;;
19036;SDS011;9651;49.138;8.900;2023-04-12T16:24:40;1.23;;;0.70;;
19036;SDS011;9651;49.138;8.900;2023-04-12T16:28:44;1.08;;;0.55;;
19036;SDS011;9651;49.138;8.900;2023-04-12T16:32:46;2.53;;;0.80;;
19036;SDS011;9651;49.138;8.900;2023-04-12T16:36:50;3.70;;;1.10;;
19036;SDS011;9651;49.138;8.900;2023-04-12T16:40:52;2.57;;;1.37;;
19036;SDS011;9651;49.138;8.900;2023-04-12T16:44:55;1.10;;;0.50;;
19036;SDS011;9651;49.138;8.900;2023-04-12T16:48:57;0.70;;;0.60;;
19036;SDS011;9651;49.138;8.900;2023-04-12T16:53:02;1.23;;;0.53;;
19036;SDS011;9651;49.138;8.900;2023-04-12T16:57:04;0.40;;;0.40;;
19036;SDS011;9651;49.138;8.900;2023-04-12T17:01:07;1.27;;;0.50;;
19036;SDS011;9651;49.138;8.900;2023-04-12T17:05:09;0.80;;;0.60;;
19036;SDS011;9651;49.138;8.900;2023-04-12T17:09:12;0.93;;;0.52;;
19036;SDS011;9651;49.138;8.900;2023-04-12T17:13:14;1.80;;;0.60;;
19036;SDS011;9651;49.138;8.900;2023-04-12T17:17:17;1.03;;;0.60;;
19036;SDS011;9651;49.138;8.900;2023-04-12T17:21:20;1.97;;;0.70;;
19036;SDS011;9651;49.138;8.900;2023-04-12T17:25:22;1.10;;;0.80;;
19036;SDS011;9651;49.138;8.900;2023-04-12T17:29:24;2.03;;;0.80;;
19036;SDS011;9651;49.138;8.900;2023-04-12T17:33:28;0.87;;;0.80;;
19036;SDS011;9651;49.138;8.900;2023-04-12T17:37:30;0.63;;;0.63;;
19036;SDS011;9651;49.138;8.900;2023-04-12T17:41:32;1.57;;;0.90;;
19036;SDS011;9651;49.138;8.900;2023-04-12T17:45:34;1.23;;;0.90;;
19036;SDS011;9651;49.138;8.900;2023-04-12T17:49:38;1.77;;;0.70;;
19036;SDS011;9651;49.138;8.900;2023-04-12T17:53:40;1.47;;;0.90;;
19036;SDS011;9651;49.138;8.900;2023-04-12T17:57:42;1.00;;;0.80;;
19036;SDS011;9651;49.138;8.900;2023-04-12T18:01:44;2.00;;;1.00;;
19036;SDS011;9651;49.138;8.900;2023-04-12T18:05:47;1.90;;;0.90;;
19036;SDS011;9651;49.138;8.900;2023-04-12T18:09:49;1.80;;;0.90;;
19036;SDS011;9651;49.138;8.900;2023-04-12T18:13:51;1.30;;;1.10;;
19036;SDS011;9651;49.138;8.900;2023-04-12T18:17:53;1.10;;;0.90;;
19036;SDS011;9651;49.138;8.900;2023-04-12T18:21:56;1.27;;;0.80;;
19036;SDS011;9651;49.138;8.900;2023-04-12T18:25:59;2.47;;;0.70;;
19036;SDS011;9651;49.138;8.900;2023-04-12T18:30:01;2.53;;;0.93;;
19036;SDS011;9651;49.138;8.900;2023-04-12T18:34:04;0.77;;;0.77;;
19036;SDS011;9651;49.138;8.900;2023-04-12T18:38:07;1.33;;;0.90;;
19036;SDS011;9651;49.138;8.900;2023-04-12T18:42:09;1.87;;;0.90;;
19036;SDS011;9651;49.138;8.900;2023-04-12T18:46:13;1.87;;;0.90;;
19036;SDS011;9651;49.138;8.900;2023-04-12T18:50:16;0.63;;;0.63;;
19036;SDS011;9651;49.138;8.900;2023-04-12T18:54:20;1.97;;;0.90;;
19036;SDS011;9651;49.138;8.900;2023-04-12T18:58:22;1.10;;;0.70;;
19036;SDS011;9651;49.138;8.900;2023-04-12T19:02:23;1.30;;;1.20;;
19036;SDS011;9651;49.138;8.900;2023-04-12T19:06:27;1.50;;;0.70;;
19036;SDS011;9651;49.138;8.900;2023-04-12T19:10:30;2.77;;;0.80;;
19036;SDS011;9651;49.138;8.900;2023-04-12T19:14:32;2.23;;;0.80;;
19036;SDS011;9651;49.138;8.900;2023-04-12T19:18:34;1.20;;;0.70;;
19036;SDS011;9651;49.138;8.900;2023-04-12T19:22:36;1.67;;;0.90;;
19036;SDS011;9651;49.138;8.900;2023-04-12T19:26:39;1.50;;;0.93;;
19036;SDS011;9651;49.138;8.900;2023-04-12T19:30:46;3.43;;;1.23;;
19036;SDS011;9651;49.138;8.900;2023-04-12T19:34:48;3.63;;;2.13;;
19036;SDS011;9651;49.138;8.900;2023-04-12T19:38:50;1.37;;;1.27;;
19036;SDS011;9651;49.138;8.900;2023-04-12T19:42:54;2.03;;;1.87;;
19036;SDS011;9651;49.138;8.900;2023-04-12T19:46:56;1.17;;;0.97;;
19036;SDS011;9651;49.138;8.900;2023-04-12T19:50:58;0.90;;;0.80;;
19036;SDS011;9651;49.138;8.900;2023-04-12T19:55:00;1.33;;;0.90;;
19036;SDS011;9651;49.138;8.900;2023-04-12T19:59:04;0.90;;;0.83;;
19036;SDS011;9651;49.138;8.900;2023-04-12T20:03:10;1.47;;;1.13;;
19036;SDS011;9651;49.138;8.900;2023-04-12T20:07:11;3.10;;;1.40;;
19036;SDS011;9651;49.138;8.900;2023-04-12T20:11:15;2.83;;;1.37;;
19036;SDS011;9651;49.138;8.900;2023-04-12T20:15:22;1.23;;;0.80;;
19036;SDS011;9651;49.138;8.900;2023-04-12T20:19:23;3.23;;;0.60;;
19036;SDS011;9651;49.138;8.900;2023-04-12T20:23:26;1.00;;;0.50;;
19036;SDS011;9651;49.138;8.900;2023-04-12T20:27:28;0.80;;;0.60;;
19036;SDS011;9651;49.138;8.900;2023-04-12T20:31:32;1.37;;;0.70;;
19036;SDS011;9651;49.138;8.900;2023-04-12T20:35:34;2.83;;;0.70;;
19036;SDS011;9651;49.138;8.900;2023-04-12T20:39:36;0.70;;;0.60;;
19036;SDS011;9651;49.138;8.900;2023-04-12T20:43:41;0.50;;;0.40;;
19036;SDS011;9651;49.138;8.900;2023-04-12T20:47:46;1.60;;;0.37;;
19036;SDS011;9651;49.138;8.900;2023-04-12T20:51:48;0.53;;;0.30;;
19036;SDS011;9651;49.138;8.900;2023-04-12T20:55:50;0.23;;;0.23;;
19036;SDS011;9651;49.138;8.900;2023-04-12T20:59:52;0.30;;;0.30;;
19036;SDS011;9651;49.138;8.900;2023-04-12T21:03:56;0.83;;;0.30;;
19036;SDS011;9651;49.138;8.900;2023-04-12T21:08:05;1.03;;;0.40;;
19036;SDS011;9651;49.138;8.900;2023-04-12T21:12:07;0.40;;;0.40;;
19036;SDS011;9651;49.138;8.900;2023-04-12T21:16:10;1.13;;;0.30;;
19036;SDS011;9651;49.138;8.900;2023-04-12T21:20:16;0.50;;;0.30;;
19036;SDS011;9651;49.138;8.900;2023-04-12T21:24:18;0.40;;;0.40;;
19036;SDS011;9651;49.138;8.900;2023-04-12T21:28:20;0.43;;;0.37;;
19036;SDS011;9651;49.138;8.900;2023-04-12T21:32:22;0.30;;;0.30;;
19036;SDS011;9651;49.138;8.900;2023-04-12T21:36:26;2.87;;;0.50;;
19036;SDS011;9651;49.138;8.900;2023-04-12T21:40:29;0.47;;;0.47;;
19036;SDS011;9651;49.138;8.900;2023-04-12T21:44:31;1.47;;;0.50;;
19036;SDS011;9651;49.138;8.900;2023-04-12T21:48:33;0.40;;;0.40;;
19036;SDS011;9651;49.138;8.900;2023-04-12T21:52:37;1.00;;;0.70;;
19036;SDS011;9651;49.138;8.900;2023-04-12T21:56:39;0.50;;;0.50;;
19036;SDS011;9651;49.138;8.900;2023-04-12T22:00:41;0.83;;;0.50;;
19036;SDS011;9651;49.138;8.900;2023-04-12T22:04:43;0.50;;;0.40;;
19036;SDS011;9651;49.138;8.900;2023-04-12T22:08:47;0.83;;;0.33;;
19036;SDS011;9651;49.138;8.900;2023-04-12T22:12:48;0.97;;;0.30;;
19036;SDS011;9651;49.138;8.900;2023-04-12T22:16:53;1.40;;;0.70;;
19036;SDS011;9651;49.138;8.900;2023-04-12T22:20:56;1.33;;;0.60;;
19036;SDS011;9651;49.138;8.900;2023-04-12T22:25:00;2.30;;;0.90;;
19036;SDS011;9651;49.138;8.900;2023-04-12T22:29:03;0.73;;;0.60;;
19036;SDS011;9651;49.138;8.900;2023-04-12T22:33:05;1.27;;;0.73;;
19036;SDS011;9651;49.138;8.900;2023-04-12T22:37:07;0.90;;;0.70;;
19036;SDS011;9651;49.138;8.900;2023-04-12T22:41:15;1.87;;;0.70;;
19036;SDS011;9651;49.138;8.900;2023-04-12T22:45:17;1.03;;;0.53;;
19036;SDS011;9651;49.138;8.900;2023-04-12T22:49:21;2.13;;;0.60;;
19036;SDS011;9651;49.138;8.900;2023-04-12T22:53:27;0.80;;;0.60;;
19036;SDS011;9651;49.138;8.900;2023-04-12T22:57:30;1.40;;;0.87;;
19036;SDS011;9651;49.138;8.900;2023-04-12T23:01:32;0.70;;;0.50;;
19036;SDS011;9651;49.138;8.900;2023-04-12T23:05:34;2.90;;;0.60;;
19036;SDS011;9651;49.138;8.900;2023-04-12T23:09:36;0.50;;;0.50;;
19036;SDS011;9651;49.138;8.900;2023-04-12T23:13:40;2.37;;;1.90;;
19036;SDS011;9651;49.138;8.900;2023-04-12T23:17:42;1.23;;;0.70;;
19036;SDS011;9651;49.138;8.900;2023-04-12T23:21:44;1.60;;;0.50;;
19036;SDS011;9651;49.138;8.900;2023-04-12T23:25:46;0.90;;;0.60;;
19036;SDS011;9651;49.138;8.900;2023-04-12T23:29:49;1.57;;;0.50;;
19036;SDS011;9651;49.138;8.900;2023-04-12T23:33:51;0.80;;;0.70;;
19036;SDS011;9651;49.138;8.900;2023-04-12T23:37:54;0.63;;;0.57;;
19036;SDS011;9651;49.138;8.900;2023-04-12T23:41:56;1.77;;;0.50;;
19036;SDS011;9651;49.138;8.900;2023-04-12T23:45:59;1.50;;;0.73;;
19036;SDS011;9651;49.138;8.900;2023-04-12T23:50:02;1.10;;;0.47;;
19036;SDS011;9651;49.138;8.900;2023-04-12T23:54:05;1.43;;;0.50;;
19036;SDS011;9651;49.138;8.900;2023-04-12T23:58:07;4.13;;;0.60;;
